Helena, MT

1:04 AM MST on March 05, 2015 (GMT -0700)
APRSWXNET Helena MT US | Change Station
CLOSE
Current Station
Personal Weather Station
Location: Helena, MT
Elevation: 3735 ft
Nearby Weather Stations

Elev 3735 ft 46.66 °N, 112.03 °W | Updated 3 days ago

Partly Cloudy
Partly Cloudy
22 °F
Feels Like 12 °F
N
7
Wind Variable Wind from South
Gusts mph

Today
High -- | Low -- °F
--% Chance of Precip.
Yesterday
High -- | Low -- °F
Precip. -- in
7:00 AM 6:19 PM
Full, 100% visible
Pressure 30.28 in
Visibility 10.0 miles
Clouds Clear
Windchill 12 °F
Dew Point 10 °F
Humidity 58%
Rainfall in
Snow Depth Not available.
UV 0 out of 12
Pollen .40 out of 12
Air Quality Not available.
Flu Activity Not available.
METAR KHLN 050753Z AUTO 28007KT 10SM CLR 02/M12 A3014 RMK AO2 SLP253 T00171122

More Conditions Fewer Conditions

Pressure 30.28 in
Visibility 10.0 miles
Clouds Clear
Windchill 12 °F
Dew Point 10 °F
Humidity 58%
Rainfall in
Snow Depth Not available.
UV 0 out of 12
Pollen .40 out of 12
Air Quality Not available.
Flu Activity Not available.
METAR KHLN 050753Z AUTO 28007KT 10SM CLR 02/M12 A3014 RMK AO2 SLP253 T00171122

More Conditions Fewer Conditions

10-Day Weather Forecast

Almanac

Astronomy

Mar. 05, 2015 Rise Set
Actual Time
Civil Twilight
Nautical Twilight
Astronomical Twilight
Moon
Length of Visible Light
Length of Day
Tomorrow will be .
, % of the Moon is Illuminated

Today's Extremes

State Highs State Lows

Community

WunderPhotos

Upload Photos

1,802,704 photos uploaded!

WunderBlogs® & News

Nearby

Air Quality

  Air Quality AQ Index Pollutant
Not available.

Snow Depth

Station Depth Elevation

Earthquake Activity

City Distance Mag. Time & Date
Minimum magnitude displayed is 2.5.

Coastal Water Temperatures

Place Temperature

Nearby Weather Stations